Lyon/Saint-Exupery

Airport
ICAO code: 
LFLL
IATA Code: 
LYS
Summary
ICAO Region: 
EUR
Territory: 
Location: 
Colombier-Saugnieu, Rhone-Alpes
Serving: 
Lyon
Elevation: 
821 ft
Coordinates: 
Aerial View: 
45° 43' 32.002" N, 5° 4' 52" E
Metar
Observation
LFLL 270000Z 02006KT 340V040 2900 BR OVC001 M03/M03 Q1033 TEMPO OVC003
Station
Lyon / Satolas
Date/Time
2022-01-27 00:00:00
Wind direction
20°
Wind speed
06 kts
Lowest cloud amount
overcast
Temperature
-3°C
Dew point
-3°C
Humidity
100%
QNH
1033 hPa
Weather condition
n/a

Description

International airport serving city of Lyon in France; formerly known as Lyon Satolas.

Climatology

Humid Subtropical (Köppen climate classification Cfa).

Runways

Designator Length Width Surface Rops
18L/36R 2670 45 ASP Yes/Yes
18R/36L 4000 45 ASP Yes/Yes

SKYbrary Partners:

Safety knowledge contributed by: